Time;durP1;ratioP1;P1;durP2;ratioP2;P2;SDS_P1;SDS_P2;PMS_P1;PMS_P2;Temp;Humidity;BMP_temperature;BMP_pressure;BME280_temperature;BME280_humidity;BME280_pressure;Samples;Min_cycle;Max_cycle;Signal;HPM_P1;HPM_P2
2023/09/05 00:01:12;;;;;;;0.50;0.20;;;;;;;18.62;85.89;100803.16;5039109;28;20486;-49
2023/09/05 00:03:43;;;;;;;0.50;0.20;;;;;;;18.57;86.57;100800.72;5041970;28;20443;-50
2023/09/05 00:06:10;;;;;;;0.40;0.20;;;;;;;18.60;86.38;100800.56;5046078;28;20550;-49
2023/09/05 00:08:38;;;;;;;0.50;0.20;;;;;;;18.59;86.46;100806.91;5043154;28;20433;-49
2023/09/05 00:11:05;;;;;;;0.50;0.20;;;;;;;18.67;86.08;100805.66;5038579;28;20499;-50
2023/09/05 00:13:31;;;;;;;0.50;0.20;;;;;;;18.45;85.57;100806.75;5041178;28;21000;-51
2023/09/05 00:15:58;;;;;;;0.50;0.20;;;;;;;18.49;86.35;100802.09;5045682;28;20952;-50
2023/09/05 00:18:24;;;;;;;0.50;0.20;;;;;;;18.50;85.70;100810.09;5044070;28;20425;-50
2023/09/05 00:20:55;;;;;;;0.50;0.20;;;;;;;18.39;87.32;100796.34;5038835;28;20541;-50
2023/09/05 00:23:23;;;;;;;0.40;0.20;;;;;;;18.29;87.66;100800.47;5039861;28;20458;-51
2023/09/05 00:25:50;;;;;;;0.50;0.20;;;;;;;18.35;87.39;100794.75;5045683;28;20452;-52
2023/09/05 00:28:20;;;;;;;0.50;0.20;;;;;;;18.16;87.61;100800.22;5045378;28;21051;-52
2023/09/05 00:30:46;;;;;;;0.50;0.20;;;;;;;18.19;87.50;100800.06;5045375;28;20487;-50
2023/09/05 00:33:13;;;;;;;0.50;0.20;;;;;;;18.16;87.95;100792.16;5045520;28;20450;-50
2023/09/05 00:35:40;;;;;;;0.40;0.20;;;;;;;18.12;88.06;100795.09;5039309;28;20824;-50
2023/09/05 00:38:06;;;;;;;0.40;0.20;;;;;;;18.07;88.30;100800.69;5038372;28;20538;-50
2023/09/05 00:40:33;;;;;;;0.40;0.20;;;;;;;18.01;89.27;100795.63;5047307;28;20451;-50
2023/09/05 00:42:59;;;;;;;0.40;0.20;;;;;;;17.90;89.01;100790.78;5049876;28;20497;-50
2023/09/05 00:45:26;;;;;;;0.40;0.20;;;;;;;17.85;89.73;100798.25;5043650;28;20486;-50
2023/09/05 00:47:52;;;;;;;0.47;0.20;;;;;;;17.79;90.02;100798.53;5042611;28;20538;-50
2023/09/05 00:50:20;;;;;;;0.40;0.20;;;;;;;17.59;90.63;100783.38;5048581;28;20451;-49
2023/09/05 00:52:47;;;;;;;0.50;0.20;;;;;;;17.56;91.13;100780.84;5040908;28;20569;-49
2023/09/05 00:55:14;;;;;;;0.40;0.20;;;;;;;17.64;90.55;100781.31;5037060;28;20450;-50
2023/09/05 00:57:41;;;;;;;0.50;0.20;;;;;;;17.56;90.92;100786.22;5036437;28;20447;-50
2023/09/05 01:00:09;;;;;;;0.40;0.20;;;;;;;17.52;91.58;100775.66;5042682;28;20885;-49
2023/09/05 01:02:36;;;;;;;0.50;0.20;;;;;;;17.67;90.67;100788.34;5042307;28;20494;-49
2023/09/05 01:05:04;;;;;;;0.50;0.20;;;;;;;17.87;89.73;100790.09;5048778;28;20495;-50
2023/09/05 01:08:02;;;;;;;0.50;0.20;;;;;;;17.75;89.80;100787.06;5049227;28;20454;-50
2023/09/05 01:10:46;;;;;;;0.40;0.20;;;;;;;17.70;89.96;100786.44;5047927;28;20485;-49
2023/09/05 01:13:12;;;;;;;0.50;0.20;;;;;;;17.82;90.28;100789.44;5048169;28;20447;-50
2023/09/05 01:15:38;;;;;;;0.50;0.20;;;;;;;17.66;90.09;100781.22;5048674;28;20450;-50
2023/09/05 01:18:05;;;;;;;0.40;0.20;;;;;;;17.51;91.16;100790.94;5043947;28;20455;-49
2023/09/05 01:20:46;;;;;;;0.40;0.20;;;;;;;17.51;91.08;100773.94;5042260;28;20470;-50
2023/09/05 01:23:17;;;;;;;0.40;0.20;;;;;;;17.57;90.06;100779.03;5045191;28;20495;-49
2023/09/05 01:25:45;;;;;;;0.40;0.20;;;;;;;17.81;89.34;100787.69;5048802;28;20459;-50
2023/09/05 01:28:13;;;;;;;0.40;0.20;;;;;;;18.09;87.95;100773.69;5046839;28;20533;-49
2023/09/05 01:30:41;;;;;;;0.40;0.20;;;;;;;18.54;84.75;100782.06;5041902;28;20854;-50
2023/09/05 01:33:08;;;;;;;0.40;0.20;;;;;;;18.60;83.28;100772.75;5043566;28;20459;-50
2023/09/05 01:35:35;;;;;;;0.40;0.30;;;;;;;18.68;82.32;100773.25;5048394;28;20501;-50
2023/09/05 01:38:01;;;;;;;0.40;0.20;;;;;;;18.82;81.53;100770.69;5047690;28;20447;-50
2023/09/05 01:40:28;;;;;;;0.40;0.20;;;;;;;18.85;81.12;100766.94;5041610;28;20486;-48
2023/09/05 01:42:54;;;;;;;0.40;0.20;;;;;;;18.96;80.44;100767.22;5042976;28;20491;-50
2023/09/05 01:45:21;;;;;;;0.40;0.20;;;;;;;18.93;80.51;100762.03;5048399;28;20531;-48
2023/09/05 01:47:47;;;;;;;0.40;0.20;;;;;;;18.92;80.30;100769.22;5047819;28;20538;-52
2023/09/05 01:50:14;;;;;;;0.40;0.20;;;;;;;19.05;80.10;100766.72;5041230;28;20453;-50
2023/09/05 01:52:41;;;;;;;0.40;0.30;;;;;;;19.11;79.55;100765.50;5041788;28;21047;-50
2023/09/05 01:55:08;;;;;;;0.40;0.20;;;;;;;19.10;79.44;100764.63;5047642;28;20440;-50
2023/09/05 01:57:34;;;;;;;0.40;0.20;;;;;;;19.15;79.02;100762.53;5034973;28;20455;-49
2023/09/05 02:00:01;;;;;;;0.40;0.20;;;;;;;19.11;79.32;100765.50;5048340;28;20429;-50
2023/09/05 02:02:27;;;;;;;0.40;0.20;;;;;;;19.08;79.64;100765.69;5047180;28;20856;-50
2023/09/05 02:08:55;;;;;;;0.40;0.20;;;;;;;19.08;79.64;100755.78;5054891;28;20413;-50
2023/09/05 02:11:23;;;;;;;0.40;0.20;;;;;;;19.02;79.41;100757.91;5050463;22;20458;-49
2023/09/05 02:13:49;;;;;;;0.40;0.20;;;;;;;19.06;79.14;100746.91;5003040;28;20465;-48
2023/09/05 02:16:18;;;;;;;0.40;0.20;;;;;;;19.00;79.67;100751.75;5014179;28;20543;-49
2023/09/05 02:18:47;;;;;;;0.40;0.20;;;;;;;19.01;79.42;100750.78;5015131;28;20577;-49
2023/09/05 02:21:14;;;;;;;0.40;0.20;;;;;;;18.98;79.38;100751.84;4995344;28;20492;-50
2023/09/05 02:23:41;;;;;;;0.40;0.20;;;;;;;18.94;79.24;100753.84;5008090;28;20579;-49
2023/09/05 02:26:08;;;;;;;0.40;0.20;;;;;;;18.99;79.27;100748.19;4995167;28;20804;-49
2023/09/05 02:28:35;;;;;;;0.40;0.20;;;;;;;19.00;79.04;100760.72;5008244;28;20453;-49
2023/09/05 02:31:08;;;;;;;0.40;0.20;;;;;;;19.16;78.38;100764.28;5002081;28;20457;-49
2023/09/05 02:33:36;;;;;;;0.40;0.20;;;;;;;19.18;78.70;100759.66;5001771;28;20538;-51
2023/09/05 02:36:15;;;;;;;0.40;0.20;;;;;;;19.15;78.64;100770.63;5006516;28;20874;-48
2023/09/05 02:38:42;;;;;;;0.40;0.20;;;;;;;19.07;78.76;100767.50;5008182;28;20441;-50
2023/09/05 02:41:13;;;;;;;0.40;0.20;;;;;;;19.19;77.93;100769.50;5004841;28;20448;-49
2023/09/05 02:43:40;;;;;;;0.40;0.20;;;;;;;19.21;77.96;100761.34;5000926;28;21026;-49
2023/09/05 02:46:08;;;;;;;0.40;0.20;;;;;;;19.13;78.35;100764.44;5003686;28;20489;-49
2023/09/05 02:48:38;;;;;;;0.40;0.20;;;;;;;19.25;77.61;100757.50;5008014;28;20959;-49
2023/09/05 02:51:09;;;;;;;0.40;0.20;;;;;;;19.17;77.88;100759.75;5005932;28;20476;-49
2023/09/05 02:53:37;;;;;;;0.40;0.20;;;;;;;19.16;78.12;100758.00;5007342;28;20444;-50
2023/09/05 02:56:04;;;;;;;0.40;0.20;;;;;;;19.17;77.78;100766.00;5017939;28;21019;-49
2023/09/05 02:58:32;;;;;;;0.40;0.20;;;;;;;19.12;78.11;100765.41;5003642;28;20461;-50
2023/09/05 03:01:04;;;;;;;0.40;0.20;;;;;;;19.11;78.74;100768.19;5007857;28;20798;-50
2023/09/05 03:03:31;;;;;;;0.40;0.20;;;;;;;19.26;77.80;100764.63;5001441;28;20531;-49
2023/09/05 03:06:11;;;;;;;0.40;0.20;;;;;;;19.15;78.69;100756.28;5000737;28;20435;-49
2023/09/05 03:08:38;;;;;;;0.40;0.20;;;;;;;19.04;78.13;100764.09;5004483;28;20446;-49
2023/09/05 03:11:04;;;;;;;0.40;0.20;;;;;;;18.95;79.10;100765.50;5007318;28;20453;-48
2023/09/05 03:13:31;;;;;;;0.40;0.20;;;;;;;18.96;79.05;100760.97;5004037;28;20457;-50
2023/09/05 03:15:57;;;;;;;0.40;0.20;;;;;;;18.81;79.69;100760.88;5001146;28;20449;-49
2023/09/05 03:18:27;;;;;;;0.40;0.20;;;;;;;19.01;79.67;100754.34;5004030;28;20934;-49
2023/09/05 03:20:53;;;;;;;0.40;0.20;;;;;;;18.62;80.65;100746.63;5007261;28;20944;-49
2023/09/05 03:23:22;;;;;;;0.40;0.20;;;;;;;18.67;81.35;100741.03;5004420;28;20575;-49
2023/09/05 03:25:49;;;;;;;0.40;0.20;;;;;;;18.65;81.11;100746.50;5009749;28;20539;-49
2023/09/05 03:28:15;;;;;;;0.40;0.20;;;;;;;18.69;81.40;100742.69;5004430;28;20452;-49
2023/09/05 03:30:42;;;;;;;0.40;0.20;;;;;;;18.71;81.74;100748.84;5000735;28;20448;-49
2023/09/05 03:33:09;;;;;;;0.40;0.20;;;;;;;18.74;81.20;100750.50;5002528;28;21050;-49
2023/09/05 03:35:36;;;;;;;0.40;0.20;;;;;;;18.68;81.34;100757.09;5007228;28;20449;-49
2023/09/05 03:38:02;;;;;;;0.40;0.20;;;;;;;18.63;81.87;100743.88;5005210;28;20458;-49
2023/09/05 03:40:30;;;;;;;0.40;0.20;;;;;;;18.66;81.43;100742.88;5000070;28;20946;-49
2023/09/05 03:42:56;;;;;;;0.40;0.20;;;;;;;18.51;82.48;100739.16;5002040;28;20520;-51
2023/09/05 03:45:23;;;;;;;0.40;0.20;;;;;;;18.46;82.93;100735.81;5006884;28;20460;-50
2023/09/05 03:47:49;;;;;;;0.40;0.20;;;;;;;18.54;82.11;100738.09;5005323;28;20473;-51
2023/09/05 03:50:26;;;;;;;0.40;0.20;;;;;;;18.47;82.50;100732.16;5006924;28;20892;-49
2023/09/05 03:52:52;;;;;;;0.40;0.20;;;;;;;18.47;82.70;100731.31;5006669;28;20965;-49
2023/09/05 03:55:19;;;;;;;0.40;0.20;;;;;;;18.40;82.97;100732.59;5015738;28;20948;-49
2023/09/05 03:57:46;;;;;;;0.40;0.20;;;;;;;18.39;83.19;100736.25;5011489;28;20488;-49
2023/09/05 04:00:12;;;;;;;0.40;0.20;;;;;;;18.21;83.72;100732.69;5000339;28;20452;-49
2023/09/05 04:02:39;;;;;;;0.40;0.30;;;;;;;18.16;84.45;100729.38;4999955;28;20524;-49
2023/09/05 04:05:07;;;;;;;0.40;0.20;;;;;;;18.06;85.15;100735.25;5005498;28;20450;-49
2023/09/05 04:07:34;;;;;;;0.40;0.20;;;;;;;18.72;82.08;100730.88;5006685;28;20445;-48
2023/09/05 04:10:00;;;;;;;0.40;0.20;;;;;;;18.01;85.24;100729.25;5001223;28;20543;-49
2023/09/05 04:12:27;;;;;;;0.40;0.20;;;;;;;18.02;85.82;100727.41;4999496;28;20473;-50
2023/09/05 04:14:53;;;;;;;0.40;0.30;;;;;;;17.80;86.02;100726.78;5004354;28;20801;-49
2023/09/05 04:17:20;;;;;;;0.40;0.20;;;;;;;18.02;86.13;100727.41;5006225;28;20543;-49
2023/09/05 04:19:50;;;;;;;0.40;0.20;;;;;;;17.80;86.45;100729.47;5001534;28;20452;-48
2023/09/05 04:22:17;;;;;;;0.40;0.20;;;;;;;17.71;87.47;100728.16;4998156;28;20501;-48
2023/09/05 04:24:43;;;;;;;0.40;0.20;;;;;;;17.59;87.88;100739.47;5012646;28;20449;-49
2023/09/05 04:27:10;;;;;;;0.40;0.20;;;;;;;17.59;88.05;100729.59;4999304;28;20467;-49
2023/09/05 04:29:36;;;;;;;0.40;0.20;;;;;;;17.46;88.62;100732.03;5003732;28;20453;-48
2023/09/05 04:32:03;;;;;;;0.40;0.20;;;;;;;17.34;88.94;100729.06;5006239;28;20588;-48
2023/09/05 04:34:29;;;;;;;0.40;0.20;;;;;;;17.28;89.55;100742.84;5002780;28;20460;-49
2023/09/05 04:36:56;;;;;;;0.40;0.20;;;;;;;17.18;89.73;100732.53;4999293;28;20456;-49
2023/09/05 04:39:22;;;;;;;0.40;0.20;;;;;;;17.18;89.71;100743.28;5003270;28;20826;-49
2023/09/05 04:41:49;;;;;;;0.40;0.20;;;;;;;17.08;89.70;100746.47;5006142;28;20846;-49
2023/09/05 04:44:15;;;;;;;0.40;0.20;;;;;;;17.07;90.20;100745.59;5002539;28;20496;-49
2023/09/05 04:46:45;;;;;;;0.40;0.20;;;;;;;17.24;90.41;100747.47;4999291;28;20457;-49
2023/09/05 04:49:11;;;;;;;0.40;0.20;;;;;;;16.98;90.46;100750.53;5002581;28;20528;-49
2023/09/05 04:51:38;;;;;;;0.50;0.20;;;;;;;16.95;90.89;100748.00;5006100;28;20479;-48
2023/09/05 04:54:05;;;;;;;0.40;0.20;;;;;;;16.84;91.85;100748.50;5008307;28;20897;-48
2023/09/05 04:56:31;;;;;;;0.40;0.20;;;;;;;16.88;92.10;100747.44;5016598;28;20629;-49
2023/09/05 04:58:58;;;;;;;0.40;0.20;;;;;;;16.81;92.10;100757.56;5002571;28;20450;-49
2023/09/05 05:01:24;;;;;;;3.23;1.80;;;;;;;16.68;92.38;100752.84;5006108;28;20474;-49
2023/09/05 05:03:51;;;;;;;0.40;0.20;;;;;;;16.55;93.00;100768.59;5003120;28;20492;-49
2023/09/05 05:06:17;;;;;;;0.40;0.20;;;;;;;16.57;93.59;100769.41;4999224;28;20456;-50
2023/09/05 05:08:44;;;;;;;0.40;0.20;;;;;;;16.49;93.63;100776.94;5001816;28;20449;-51
2023/09/05 05:11:10;;;;;;;0.40;0.20;;;;;;;16.40;94.78;100785.41;5005852;28;20461;-49
2023/09/05 05:13:36;;;;;;;0.43;0.20;;;;;;;16.56;93.94;100783.78;5002113;28;20535;-49
2023/09/05 05:16:03;;;;;;;0.40;0.20;;;;;;;16.67;93.31;100780.59;4998128;28;20453;-49
2023/09/05 05:18:30;;;;;;;0.50;0.20;;;;;;;17.35;91.38;100787.25;5000949;28;20842;-49
2023/09/05 05:20:56;;;;;;;0.40;0.20;;;;;;;18.08;87.58;100780.03;5004756;28;20504;-50
2023/09/05 05:23:23;;;;;;;0.40;0.20;;;;;;;18.98;84.51;100788.69;5002455;28;20584;-49
2023/09/05 05:25:50;;;;;;;0.40;0.20;;;;;;;19.27;82.63;100782.53;5006379;28;20475;-49
2023/09/05 05:28:16;;;;;;;0.40;0.20;;;;;;;19.13;82.45;100786.00;5006362;28;20945;-49
2023/09/05 05:30:43;;;;;;;0.40;0.20;;;;;;;19.23;83.07;100784.53;5001495;28;20476;-49
2023/09/05 05:33:09;;;;;;;0.40;0.20;;;;;;;19.32;82.10;100782.25;5003173;28;20816;-49
2023/09/05 05:35:36;;;;;;;0.40;0.20;;;;;;;19.43;81.06;100779.84;5007947;28;20473;-49
2023/09/05 05:38:02;;;;;;;1.13;1.13;;;;;;;19.58;81.34;100778.09;5006545;28;20458;-49
2023/09/05 05:40:29;;;;;;;0.40;0.20;;;;;;;19.62;80.09;100777.88;5001552;28;20458;-49
2023/09/05 05:42:56;;;;;;;0.40;0.20;;;;;;;19.72;79.95;100780.88;5002001;28;20496;-48
2023/09/05 05:45:22;;;;;;;0.40;0.20;;;;;;;19.79;78.75;100780.44;5008175;28;20812;-49
2023/09/05 05:47:48;;;;;;;0.40;0.20;;;;;;;19.58;80.05;100780.81;5007776;28;20937;-49
2023/09/05 05:50:15;;;;;;;0.40;0.20;;;;;;;19.47;80.68;100782.28;5001408;28;20456;-48
2023/09/05 05:52:41;;;;;;;0.40;0.20;;;;;;;19.30;81.68;100785.06;5005611;28;20491;-49
2023/09/05 05:55:10;;;;;;;0.40;0.20;;;;;;;19.11;83.00;100779.84;5017531;28;20451;-49
2023/09/05 05:57:36;;;;;;;0.40;0.20;;;;;;;19.05;83.39;100779.31;5014374;28;21028;-49
2023/09/05 06:00:04;;;;;;;0.40;0.20;;;;;;;19.02;83.04;100783.03;5000992;28;20452;-49
2023/09/05 06:02:31;;;;;;;0.40;0.20;;;;;;;18.66;85.14;100777.00;5001273;28;20561;-50
2023/09/05 06:04:57;;;;;;;0.40;0.20;;;;;;;18.76;85.23;100780.91;5007387;28;20432;-49
2023/09/05 06:07:24;;;;;;;0.40;0.20;;;;;;;18.76;85.00;100773.69;5006916;28;20419;-48
2023/09/05 06:09:50;;;;;;;0.40;0.20;;;;;;;18.92;84.66;100780.00;4994780;28;20460;-49
2023/09/05 06:12:17;;;;;;;0.40;0.20;;;;;;;19.06;84.68;100781.94;4964781;28;1228469;-49
2023/09/05 06:14:43;;;;;;;0.40;0.20;;;;;;;19.01;84.73;100785.81;5001787;28;20224;-49
2023/09/05 06:17:10;;;;;;;0.40;0.30;;;;;;;19.16;84.06;100795.75;5001965;28;20550;-49
2023/09/05 06:19:36;;;;;;;0.40;0.20;;;;;;;19.09;83.63;100791.66;5001679;28;20555;-49
2023/09/05 06:22:03;;;;;;;0.40;0.20;;;;;;;19.12;84.02;100802.28;5001940;28;20476;-49
2023/09/05 06:24:29;;;;;;;0.40;0.20;;;;;;;19.24;84.05;100791.69;5014223;28;20844;-49
2023/09/05 06:26:56;;;;;;;0.40;0.30;;;;;;;19.45;84.02;100794.09;5001491;28;20458;-49
2023/09/05 06:29:22;;;;;;;0.40;0.20;;;;;;;19.30;84.44;100794.97;5007842;28;20477;-49
2023/09/05 06:31:49;;;;;;;0.40;0.20;;;;;;;19.21;84.45;100799.94;5006853;28;20477;-49
2023/09/05 06:34:16;;;;;;;0.40;0.20;;;;;;;19.42;84.12;100795.16;5002148;28;20444;-49
2023/09/05 06:36:42;;;;;;;0.40;0.20;;;;;;;19.48;84.00;100799.34;5001396;28;20428;-49
2023/09/05 06:39:10;;;;;;;0.40;0.20;;;;;;;19.76;83.23;100807.59;5006637;28;20508;-49
2023/09/05 06:41:37;;;;;;;0.40;0.20;;;;;;;19.64;82.99;100794.81;5008070;28;20508;-50
2023/09/05 06:44:03;;;;;;;0.40;0.20;;;;;;;19.70;83.49;100797.16;5002516;28;21009;-49
2023/09/05 06:46:35;;;;;;;0.40;0.20;;;;;;;19.80;82.83;100798.34;5001196;28;20532;-49
2023/09/05 06:49:02;;;;;;;0.40;0.20;;;;;;;20.10;82.55;100805.59;5005696;28;20544;-50
2023/09/05 06:51:30;;;;;;;0.40;0.20;;;;;;;19.96;81.38;100801.03;5007896;28;20564;-49
2023/09/05 06:53:58;;;;;;;0.40;0.20;;;;;;;19.94;81.76;100800.25;5009096;28;20536;-49
2023/09/05 06:56:25;;;;;;;0.40;0.20;;;;;;;20.01;82.12;100803.44;5017867;28;21157;-49
2023/09/05 06:58:52;;;;;;;0.40;0.20;;;;;;;20.24;81.37;100796.66;5004889;28;20512;-49
2023/09/05 07:01:18;;;;;;;0.40;0.20;;;;;;;20.26;80.40;100805.53;5007500;28;20459;-49
2023/09/05 07:03:45;;;;;;;0.40;0.20;;;;;;;20.47;79.94;100798.00;5004342;28;20496;-49
2023/09/05 07:06:18;;;;;;;0.40;0.20;;;;;;;20.48;79.85;100799.75;5000688;28;20427;-49
2023/09/05 07:08:45;;;;;;;0.40;0.20;;;;;;;20.60;78.91;100804.38;5003663;28;20449;-49
2023/09/05 07:11:15;;;;;;;0.40;0.20;;;;;;;20.24;81.68;100802.94;5007364;28;20776;-49
2023/09/05 07:13:41;;;;;;;0.50;0.20;;;;;;;20.65;80.63;100799.56;5005423;28;20519;-51
2023/09/05 07:16:08;;;;;;;0.50;0.30;;;;;;;20.61;79.09;100796.19;5000581;28;20484;-49
2023/09/05 07:18:34;;;;;;;0.40;0.20;;;;;;;21.04;78.31;100798.00;5002700;28;20445;-49
2023/09/05 07:21:01;;;;;;;0.43;0.20;;;;;;;21.02;77.07;100795.41;5007024;28;21004;-49
2023/09/05 07:23:27;;;;;;;0.40;0.20;;;;;;;21.28;77.17;100793.78;5005383;28;20558;-49
2023/09/05 07:25:55;;;;;;;0.50;0.30;;;;;;;21.62;75.78;100794.25;5008722;28;20946;-49
2023/09/05 07:28:22;;;;;;;0.40;0.20;;;;;;;21.70;74.85;100794.63;5005462;28;20482;-50
2023/09/05 07:30:49;;;;;;;0.50;0.20;;;;;;;21.70;74.34;100791.91;5000395;28;20505;-49
2023/09/05 07:33:16;;;;;;;0.50;0.20;;;;;;;21.92;73.66;100788.59;5001860;28;20470;-49
2023/09/05 07:35:42;;;;;;;0.50;0.20;;;;;;;21.89;72.93;100790.56;5006766;28;20454;-49
2023/09/05 07:38:09;;;;;;;0.47;0.23;;;;;;;22.04;72.63;100777.81;5005696;28;20540;-48
2023/09/05 07:40:36;;;;;;;0.50;0.20;;;;;;;22.07;73.92;100782.22;5000114;28;20449;-49
2023/09/05 07:43:03;;;;;;;0.50;0.20;;;;;;;22.22;72.53;100781.16;5001271;28;20512;-50
2023/09/05 07:45:30;;;;;;;0.50;0.30;;;;;;;22.17;72.08;100789.56;5006744;28;20903;-49
2023/09/05 07:47:56;;;;;;;0.47;0.20;;;;;;;22.41;70.40;100789.72;5005921;28;20457;-49
2023/09/05 07:50:23;;;;;;;0.50;0.20;;;;;;;22.57;69.63;100788.63;4999707;28;20453;-49
2023/09/05 07:52:49;;;;;;;0.50;0.20;;;;;;;22.60;68.34;100794.69;5006620;28;20909;-49
2023/09/05 07:55:16;;;;;;;0.50;0.20;;;;;;;22.75;69.20;100792.75;5016828;28;20453;-49
2023/09/05 07:57:42;;;;;;;0.50;0.20;;;;;;;22.66;68.61;100796.13;5013031;28;20459;-49
2023/09/05 08:00:11;;;;;;;0.50;0.20;;;;;;;22.90;69.98;100796.28;5000457;28;20427;-50
2023/09/05 08:02:37;;;;;;;0.50;0.20;;;;;;;22.87;68.32;100796.47;4999853;28;20502;-49
2023/09/05 08:05:05;;;;;;;0.40;0.20;;;;;;;22.84;66.90;100789.41;5004459;28;20515;-49
2023/09/05 08:07:32;;;;;;;0.47;0.20;;;;;;;23.04;67.29;100788.00;5006282;28;20511;-50
2023/09/05 08:10:00;;;;;;;0.50;0.20;;;;;;;23.00;66.11;100792.75;5000842;28;20971;-49
2023/09/05 08:12:26;;;;;;;0.50;0.20;;;;;;;23.11;66.37;100793.84;5031642;23;20508;-53
2023/09/05 08:14:53;;;;;;;0.47;0.20;;;;;;;23.08;65.46;100789.50;5052424;28;20471;-53
2023/09/05 08:17:19;;;;;;;0.50;0.20;;;;;;;23.23;64.95;100788.38;5052401;28;20426;-53
2023/09/05 08:19:46;;;;;;;0.50;0.20;;;;;;;23.38;64.80;100785.50;5052643;28;20451;-53
2023/09/05 08:22:12;;;;;;;0.43;0.20;;;;;;;23.58;64.00;100784.94;5050582;28;20477;-53
2023/09/05 08:24:39;;;;;;;0.50;0.20;;;;;;;23.66;64.84;100787.94;5040192;28;20552;-53
2023/09/05 08:27:05;;;;;;;0.50;0.20;;;;;;;23.55;63.16;100782.41;5038625;28;20893;-52
2023/09/05 08:29:32;;;;;;;0.50;0.20;;;;;;;23.69;63.40;100784.97;5043963;28;20451;-53
2023/09/05 08:31:59;;;;;;;0.50;0.20;;;;;;;23.78;61.92;100781.59;5045692;28;20474;-53
2023/09/05 08:34:25;;;;;;;0.50;0.20;;;;;;;23.91;60.63;100793.25;5040951;28;20417;-53
2023/09/05 08:36:52;;;;;;;0.50;0.20;;;;;;;23.82;59.86;100787.63;5038511;28;20518;-53
2023/09/05 08:39:18;;;;;;;2.50;1.27;;;;;;;23.88;60.33;100787.19;5043474;28;20517;-53
2023/09/05 08:41:46;;;;;;;0.50;0.20;;;;;;;23.90;60.13;100783.38;5045514;28;20798;-53
2023/09/05 08:44:12;;;;;;;0.40;0.20;;;;;;;23.70;59.34;100786.72;5041174;28;20518;-53
2023/09/05 08:46:40;;;;;;;0.50;0.20;;;;;;;23.97;59.98;100788.31;5038683;28;20958;-53
2023/09/05 08:49:07;;;;;;;0.50;0.30;;;;;;;24.30;59.26;100782.19;5043058;28;20452;-53
2023/09/05 08:51:39;;;;;;;0.50;0.20;;;;;;;24.33;59.07;100790.09;5045312;28;20477;-53
2023/09/05 08:54:06;;;;;;;0.50;0.30;;;;;;;24.22;59.39;100791.75;5042718;28;20522;-53
2023/09/05 08:56:33;;;;;;;0.50;0.20;;;;;;;24.31;57.99;100783.91;5034359;28;20454;-53
2023/09/05 08:59:01;;;;;;;0.50;0.20;;;;;;;24.54;59.70;100791.13;5042802;28;20998;-53
2023/09/05 09:01:29;;;;;;;0.50;0.20;;;;;;;24.76;57.21;100782.13;5040594;28;20521;-53
2023/09/05 09:03:56;;;;;;;0.50;0.30;;;;;;;24.85;57.70;100778.66;5044488;28;20833;-53
2023/09/05 09:06:24;;;;;;;0.50;0.20;;;;;;;25.08;57.58;100785.88;5049168;28;20501;-53
2023/09/05 09:08:52;;;;;;;0.50;0.20;;;;;;;24.64;58.15;100791.25;5047806;28;20476;-53
2023/09/05 09:11:20;;;;;;;0.50;0.20;;;;;;;24.88;58.18;100775.69;5042294;28;20855;-53
2023/09/05 09:13:51;;;;;;;0.50;0.20;;;;;;;25.03;57.93;100784.50;5043676;28;20418;-53
2023/09/05 09:16:18;;;;;;;0.50;0.20;;;;;;;24.88;57.00;100780.28;5049175;28;20464;-53
2023/09/05 09:18:49;;;;;;;0.50;0.30;;;;;;;24.89;57.97;100782.00;5048652;28;21003;-53
2023/09/05 09:21:17;;;;;;;0.50;0.20;;;;;;;25.01;56.50;100778.31;5049077;28;20465;-53
2023/09/05 09:23:48;;;;;;;0.50;0.23;;;;;;;25.03;59.34;100777.22;5024239;28;20491;-53
2023/09/05 09:26:15;;;;;;;0.50;0.30;;;;;;;24.98;56.49;100773.97;5044038;28;20508;-53
2023/09/05 09:28:41;;;;;;;0.70;0.70;;;;;;;25.02;58.20;100775.47;5041804;28;20538;-53
2023/09/05 09:31:12;;;;;;;0.50;0.20;;;;;;;25.26;57.96;100780.78;5046911;28;20459;-53
2023/09/05 09:33:41;;;;;;;0.50;0.20;;;;;;;25.12;59.08;100781.03;5048636;28;20929;-53
2023/09/05 09:36:09;;;;;;;0.50;0.20;;;;;;;25.30;58.97;100779.53;5044862;28;20533;-53
2023/09/05 09:38:38;;;;;;;0.50;0.20;;;;;;;25.26;56.76;100783.50;5040628;28;20558;-53
2023/09/05 09:41:06;;;;;;;0.50;0.20;;;;;;;25.13;58.32;100781.91;5045365;28;20437;-53
2023/09/05 09:43:35;;;;;;;0.50;0.30;;;;;;;24.98;59.19;100775.81;5048407;28;20819;-53
2023/09/05 09:46:06;;;;;;;0.50;0.30;;;;;;;25.45;58.43;100773.81;5046123;28;20451;-53
2023/09/05 09:48:34;;;;;;;0.50;0.20;;;;;;;25.08;57.86;100772.28;5041985;28;20425;-53
2023/09/05 09:51:04;;;;;;;0.50;0.23;;;;;;;25.23;58.46;100772.00;5042981;28;20492;-53
2023/09/05 09:53:37;;;;;;;0.50;0.20;;;;;;;25.28;57.69;100764.31;5037757;28;20533;-53
2023/09/05 09:56:12;;;;;;;0.50;0.20;;;;;;;25.31;57.61;100761.34;5034973;28;20426;-53
2023/09/05 09:58:44;;;;;;;0.50;0.20;;;;;;;25.87;56.43;100748.44;5042584;28;20464;-53
2023/09/05 10:01:12;;;;;;;0.50;0.20;;;;;;;25.76;56.25;100744.88;5041493;28;20444;-53
2023/09/05 10:03:41;;;;;;;0.50;0.30;;;;;;;25.48;55.94;100749.03;5046182;28;20496;-53
2023/09/05 10:06:09;;;;;;;0.50;0.30;;;;;;;25.52;57.05;100745.97;5046866;28;20471;-53
2023/09/05 10:08:36;;;;;;;0.50;0.20;;;;;;;25.68;56.72;100740.97;5042845;28;20422;-53
2023/09/05 10:11:11;;;;;;;0.50;0.30;;;;;;;26.06;54.86;100736.84;5041223;28;20891;-53
2023/09/05 10:13:40;;;;;;;0.50;0.30;;;;;;;26.20;56.09;100733.78;5043865;28;20838;-53
2023/09/05 10:16:08;;;;;;;0.50;0.30;;;;;;;26.15;53.71;100729.72;5048123;28;20426;-53
2023/09/05 10:18:38;;;;;;;0.50;0.27;;;;;;;26.42;52.68;100731.94;5045947;28;20446;-53
2023/09/05 10:21:04;;;;;;;0.50;0.30;;;;;;;26.68;53.43;100730.50;5040865;28;20504;-53
2023/09/05 10:23:35;;;;;;;0.50;0.20;;;;;;;26.29;53.58;100722.06;5042270;28;20474;-53
2023/09/05 10:26:03;;;;;;;0.50;0.30;;;;;;;25.67;55.18;100739.22;5048179;28;20543;-53
2023/09/05 10:28:30;;;;;;;0.50;0.20;;;;;;;25.80;55.85;100724.59;5047425;28;20516;-52
2023/09/05 10:31:12;;;;;;;0.50;0.20;;;;;;;25.92;55.31;100729.00;5041048;28;20433;-53
2023/09/05 10:33:42;;;;;;;0.50;0.20;;;;;;;25.85;55.31;100719.59;5040785;28;20538;-53
2023/09/05 10:36:41;;;;;;;0.50;0.30;;;;;;;25.85;55.82;100738.66;5045005;28;20488;-53
2023/09/05 10:39:23;;;;;;;0.50;0.20;;;;;;;25.93;54.06;100722.53;5040974;28;20998;-53
2023/09/05 10:41:51;;;;;;;0.50;0.30;;;;;;;26.14;55.60;100722.53;5040558;28;20601;-53
2023/09/05 10:44:17;;;;;;;0.50;0.20;;;;;;;25.91;54.61;100717.22;5044688;28;20582;-53
2023/09/05 10:46:43;;;;;;;0.50;0.20;;;;;;;26.06;54.87;100708.72;5047752;28;20447;-53
2023/09/05 10:49:14;;;;;;;0.50;0.40;;;;;;;26.22;55.87;100704.53;5043345;28;20533;-53
2023/09/05 10:52:15;;;;;;;0.53;0.40;;;;;;;25.90;55.28;100717.34;5040291;28;21088;-53
2023/09/05 10:54:42;;;;;;;0.50;0.30;;;;;;;25.87;53.55;100715.75;5040663;28;20458;-53
2023/09/05 10:57:37;;;;;;;0.50;0.20;;;;;;;26.15;54.34;100700.59;5033830;28;20454;-53
2023/09/05 11:00:38;;;;;;;0.50;0.20;;;;;;;26.32;53.05;100696.41;5047271;28;20497;-53
2023/09/05 11:03:15;;;;;;;1.00;0.73;;;;;;;26.51;52.65;100701.13;5046861;28;20494;-53
2023/09/05 11:05:42;;;;;;;0.50;0.20;;;;;;;26.33;51.38;100695.41;5046184;28;20476;-53
2023/09/05 11:08:23;;;;;;;0.50;0.30;;;;;;;26.33;52.11;100705.47;5040006;28;20939;-53
2023/09/05 11:10:55;;;;;;;0.50;0.30;;;;;;;26.49;53.46;100698.53;5040053;28;20447;-53
2023/09/05 11:13:21;;;;;;;0.50;0.20;;;;;;;26.13;52.68;100707.19;5044877;28;20466;-53
2023/09/05 11:15:57;;;;;;;0.50;0.30;;;;;;;26.43;52.72;100700.94;5045359;28;20440;-53
2023/09/05 11:18:24;;;;;;;0.50;0.30;;;;;;;26.37;53.61;100696.91;5043587;28;20779;-53
2023/09/05 11:20:50;;;;;;;0.50;0.30;;;;;;;26.67;53.13;100695.16;5040031;28;20538;-53
2023/09/05 11:23:22;;;;;;;0.50;0.30;;;;;;;26.40;52.45;100699.34;5042820;28;20563;-53
2023/09/05 11:25:50;;;;;;;0.50;0.20;;;;;;;26.47;53.26;100697.81;5046668;28;20918;-52
2023/09/05 11:28:17;;;;;;;0.50;0.30;;;;;;;26.70;51.68;100700.34;5044703;28;20461;-53
2023/09/05 11:30:45;;;;;;;0.50;0.23;;;;;;;26.73;52.94;100687.31;5039878;28;20443;-53
2023/09/05 11:33:14;;;;;;;0.50;0.30;;;;;;;27.04;52.53;100693.59;5041581;28;20499;-53